sensor_id;sensor_type;location;lat;lon;timestamp;pressure;altitude;pressure_sealevel;temperature;humidity
60307;BME280;46155;52.364;6.580;2023-02-21T04:02:50;101623.94;;;8.48;100.00
60307;BME280;46155;52.364;6.580;2023-02-21T04:05:15;101615.94;;;8.47;100.00
60307;BME280;46155;52.364;6.580;2023-02-21T04:07:41;101619.47;;;8.47;100.00
60307;BME280;46155;52.364;6.580;2023-02-21T04:10:06;101623.16;;;8.49;100.00
60307;BME280;46155;52.364;6.580;2023-02-21T04:12:31;101623.16;;;8.49;100.00
60307;BME280;46155;52.364;6.580;2023-02-21T04:14:57;101560.94;;;8.14;100.00
60307;BME280;46155;52.364;6.580;2023-02-21T04:17:23;101619.72;;;8.50;100.00
60307;BME280;46155;52.364;6.580;2023-02-21T04:19:48;101622.22;;;8.49;100.00
60307;BME280;46155;52.364;6.580;2023-02-21T04:22:13;101613.59;;;8.50;100.00
60307;BME280;46155;52.364;6.580;2023-02-21T04:24:39;101625.47;;;8.46;100.00
60307;BME280;46155;52.364;6.580;2023-02-21T04:27:04;101624.69;;;8.47;100.00
60307;BME280;46155;52.364;6.580;2023-02-21T04:29:29;101624.94;;;8.50;100.00
60307;BME280;46155;52.364;6.580;2023-02-21T04:31:55;101622.09;;;8.47;100.00
60307;BME280;46155;52.364;6.580;2023-02-21T04:34:20;101621.19;;;8.47;100.00
60307;BME280;46155;52.364;6.580;2023-02-21T04:36:46;101629.94;;;8.47;100.00
60307;BME280;46155;52.364;6.580;2023-02-21T04:39:11;101623.69;;;8.45;100.00
60307;BME280;46155;52.364;6.580;2023-02-21T04:41:37;101620.25;;;8.46;100.00
60307;BME280;46155;52.364;6.580;2023-02-21T04:44:02;101621.44;;;8.50;100.00
60307;BME280;46155;52.364;6.580;2023-02-21T04:46:28;101615.28;;;8.49;100.00
60307;BME280;46155;52.364;6.580;2023-02-21T04:48:53;101621.31;;;8.48;100.00
60307;BME280;46155;52.364;6.580;2023-02-21T04:51:21;101619.47;;;8.47;100.00
60307;BME280;46155;52.364;6.580;2023-02-21T04:53:48;101619.72;;;8.50;100.00
60307;BME280;46155;52.364;6.580;2023-02-21T04:56:13;101610.06;;;8.49;100.00
60307;BME280;46155;52.364;6.580;2023-02-21T04:58:40;101609.91;;;8.48;100.00
60307;BME280;46155;52.364;6.580;2023-02-21T05:01:06;101614.13;;;8.46;100.00
60307;BME280;46155;52.364;6.580;2023-02-21T05:03:31;101607.16;;;8.46;100.00
60307;BME280;46155;52.364;6.580;2023-02-21T05:05:57;101606.38;;;8.47;100.00
60307;BME280;46155;52.364;6.580;2023-02-21T05:08:22;101605.59;;;8.48;100.00
60307;BME280;46155;52.364;6.580;2023-02-21T05:10:49;101612.28;;;8.44;100.00
60307;BME280;46155;52.364;6.580;2023-02-21T05:13:14;101598.25;;;8.44;100.00
60307;BME280;46155;52.364;6.580;2023-02-21T05:15:39;101604.28;;;8.43;100.00
60307;BME280;46155;52.364;6.580;2023-02-21T05:18:05;101599.44;;;8.37;100.00
60307;BME280;46155;52.364;6.580;2023-02-21T05:20:31;101596.59;;;8.34;100.00
60307;BME280;46155;52.364;6.580;2023-02-21T05:22:56;101604.31;;;8.33;100.00
60307;BME280;46155;52.364;6.580;2023-02-21T05:25:22;101599.06;;;8.33;100.00
60307;BME280;46155;52.364;6.580;2023-02-21T05:27:48;101606.94;;;8.33;100.00
60307;BME280;46155;52.364;6.580;2023-02-21T05:30:15;101592.53;;;8.27;100.00
60307;BME280;46155;52.364;6.580;2023-02-21T05:32:41;101598.84;;;8.30;100.00
60307;BME280;46155;52.364;6.580;2023-02-21T05:35:06;101605.63;;;8.27;100.00
60307;BME280;46155;52.364;6.580;2023-02-21T05:37:32;101598.84;;;8.30;100.00
60307;BME280;46155;52.364;6.580;2023-02-21T05:39:57;101604.06;;;8.30;100.00
60307;BME280;46155;52.364;6.580;2023-02-21T05:42:23;101600.91;;;8.23;100.00
60307;BME280;46155;52.364;6.580;2023-02-21T05:44:48;101600.13;;;8.24;100.00
60307;BME280;46155;52.364;6.580;2023-02-21T05:47:14;101599.88;;;8.21;100.00
60307;BME280;46155;52.364;6.580;2023-02-21T05:49:40;101607.44;;;8.28;100.00
60307;BME280;46155;52.364;6.580;2023-02-21T05:52:06;101605.63;;;8.27;100.00
60307;BME280;46155;52.364;6.580;2023-02-21T05:54:32;101603.00;;;8.27;100.00
60307;BME280;46155;52.364;6.580;2023-02-21T05:56:57;101593.06;;;8.23;100.00
60307;BME280;46155;52.364;6.580;2023-02-21T05:59:22;101598.28;;;8.23;100.00
60307;BME280;46155;52.364;6.580;2023-02-21T06:01:48;101605.91;;;8.20;100.00
60307;BME280;46155;52.364;6.580;2023-02-21T06:04:15;101602.50;;;8.21;100.00
60307;BME280;46155;52.364;6.580;2023-02-21T06:06:41;101605.13;;;8.21;100.00
60307;BME280;46155;52.364;6.580;2023-02-21T06:09:07;101600.66;;;8.20;100.00
60307;BME280;46155;52.364;6.580;2023-02-21T06:11:34;101595.56;;;8.22;100.00
60307;BME280;46155;52.364;6.580;2023-02-21T06:14:03;101590.97;;;8.19;100.00
60307;BME280;46155;52.364;6.580;2023-02-21T06:16:36;101606.69;;;8.19;100.00
60307;BME280;46155;52.364;6.580;2023-02-21T06:19:02;101599.13;;;8.22;100.00
60307;BME280;46155;52.364;6.580;2023-02-21T06:21:28;101596.22;;;8.19;100.00
60307;BME280;46155;52.364;6.580;2023-02-21T06:23:53;101599.00;;;8.21;100.00
60307;BME280;46155;52.364;6.580;2023-02-21T06:26:19;101596.22;;;8.19;100.00
60307;BME280;46155;52.364;6.580;2023-02-21T06:28:46;101594.66;;;8.21;100.00
60307;BME280;46155;52.364;6.580;2023-02-21T06:31:11;101592.81;;;8.20;100.00
60307;BME280;46155;52.364;6.580;2023-02-21T06:33:37;101603.16;;;8.19;100.00
60307;BME280;46155;52.364;6.580;2023-02-21T06:36:10;101600.16;;;8.14;100.00
60307;BME280;46155;52.364;6.580;2023-02-21T06:38:36;101607.25;;;8.15;100.00
60307;BME280;46155;52.364;6.580;2023-02-21T06:41:06;101600.16;;;8.14;100.00
60307;BME280;46155;52.364;6.580;2023-02-21T06:43:32;101600.41;;;8.17;100.00
60307;BME280;46155;52.364;6.580;2023-02-21T06:45:57;101601.72;;;8.22;100.00
60307;BME280;46155;52.364;6.580;2023-02-21T06:48:22;101599.13;;;8.22;100.00
60307;BME280;46155;52.364;6.580;2023-02-21T06:50:48;101597.94;;;8.19;100.00
60307;BME280;46155;52.364;6.580;2023-02-21T06:53:13;101598.84;;;8.19;100.00
60307;BME280;46155;52.364;6.580;2023-02-21T06:55:39;101599.00;;;8.21;100.00
60307;BME280;46155;52.364;6.580;2023-02-21T06:58:04;101605.00;;;8.20;100.00
60307;BME280;46155;52.364;6.580;2023-02-21T07:00:29;101603.28;;;8.20;100.00
60307;BME280;46155;52.364;6.580;2023-02-21T07:02:55;101603.03;;;8.17;100.00
60307;BME280;46155;52.364;6.580;2023-02-21T07:05:20;101604.88;;;8.18;100.00
60307;BME280;46155;52.364;6.580;2023-02-21T07:07:45;101609.28;;;8.19;100.00
60307;BME280;46155;52.364;6.580;2023-02-21T07:10:11;101601.72;;;8.12;100.00
60307;BME280;46155;52.364;6.580;2023-02-21T07:12:37;101604.88;;;8.18;100.00
60307;BME280;46155;52.364;6.580;2023-02-21T07:15:03;101610.88;;;8.17;100.00
60307;BME280;46155;52.364;6.580;2023-02-21T07:17:29;101606.69;;;8.19;100.00
60307;BME280;46155;52.364;6.580;2023-02-21T07:19:54;101602.25;;;8.18;100.00
60307;BME280;46155;52.364;6.580;2023-02-21T07:22:19;101603.03;;;8.17;100.00
60307;BME280;46155;52.364;6.580;2023-02-21T07:24:51;101605.41;;;8.14;100.00
60307;BME280;46155;52.364;6.580;2023-02-21T07:27:16;101601.84;;;8.14;100.00
60307;BME280;46155;52.364;6.580;2023-02-21T07:29:41;101610.38;;;8.11;100.00
60307;BME280;46155;52.364;6.580;2023-02-21T07:32:07;101602.00;;;8.05;100.00
60307;BME280;46155;52.364;6.580;2023-02-21T07:34:32;101610.09;;;8.08;100.00
60307;BME280;46155;52.364;6.580;2023-02-21T07:36:57;101612.88;;;8.09;100.00
60307;BME280;46155;52.364;6.580;2023-02-21T07:39:23;101620.84;;;8.11;100.00
60307;BME280;46155;52.364;6.580;2023-02-21T07:41:48;101618.22;;;8.11;100.00
60307;BME280;46155;52.364;6.580;2023-02-21T07:44:13;101621.88;;;8.13;100.00
60307;BME280;46155;52.364;6.580;2023-02-21T07:46:39;101619.25;;;8.13;100.00
60307;BME280;46155;52.364;6.580;2023-02-21T07:49:07;101622.94;;;8.15;100.00
60307;BME280;46155;52.364;6.580;2023-02-21T07:51:33;101623.97;;;8.17;100.00
60307;BME280;46155;52.364;6.580;2023-02-21T07:54:00;101631.94;;;8.19;100.00
60307;BME280;46155;52.364;6.580;2023-02-21T07:56:25;101626.69;;;8.19;100.00
60307;BME280;46155;52.364;6.580;2023-02-21T07:58:50;101630.38;;;8.21;100.00
60307;BME280;46155;52.364;6.580;2023-02-21T08:01:15;101623.97;;;8.17;100.00
60307;BME280;46155;52.364;6.580;2023-02-21T08:03:41;101631.03;;;8.18;100.00
60307;BME280;46155;52.364;6.580;2023-02-21T08:06:08;101629.44;;;8.20;100.00
60307;BME280;46155;52.364;6.580;2023-02-21T08:08:34;101626.69;;;8.19;100.00
60307;BME280;46155;52.364;6.580;2023-02-21T08:10:59;101630.09;;;8.18;100.00
60307;BME280;46155;52.364;6.580;2023-02-21T08:13:24;101631.16;;;8.20;100.00
60307;BME280;46155;52.364;6.580;2023-02-21T08:15:50;101633.00;;;8.21;100.00
60307;BME280;46155;52.364;6.580;2023-02-21T08:18:18;101626.03;;;8.21;100.00
60307;BME280;46155;52.364;6.580;2023-02-21T08:20:45;101641.75;;;8.21;100.00
60307;BME280;46155;52.364;6.580;2023-02-21T08:23:11;101642.66;;;8.22;100.00
60307;BME280;46155;52.364;6.580;2023-02-21T08:25:38;101640.16;;;8.23;100.00
60307;BME280;46155;52.364;6.580;2023-02-21T08:28:03;101629.69;;;8.23;100.00
60307;BME280;46155;52.364;6.580;2023-02-21T08:30:28;101639.13;;;8.21;100.00
60307;BME280;46155;52.364;6.580;2023-02-21T08:32:54;101645.38;;;8.23;100.00
60307;BME280;46155;52.364;6.580;2023-02-21T08:35:21;101642.25;;;8.27;100.00
60307;BME280;46155;52.364;6.580;2023-02-21T08:37:48;101645.09;;;8.31;100.00
60307;BME280;46155;52.364;6.580;2023-02-21T08:40:14;101644.47;;;8.33;100.00
60307;BME280;46155;52.364;6.580;2023-02-21T08:42:40;101640.94;;;8.33;100.00
60307;BME280;46155;52.364;6.580;2023-02-21T08:45:06;101638.19;;;8.31;100.00
60307;BME280;46155;52.364;6.580;2023-02-21T08:47:34;101646.03;;;8.31;100.00
60307;BME280;46155;52.364;6.580;2023-02-21T08:50:00;101633.38;;;8.25;100.00
60307;BME280;46155;52.364;6.580;2023-02-21T08:52:26;101639.75;;;8.29;100.00
60307;BME280;46155;52.364;6.580;2023-02-21T08:54:51;101635.47;;;8.30;100.00
60307;BME280;46155;52.364;6.580;2023-02-21T08:57:16;101628.75;;;8.33;100.00
60307;BME280;46155;52.364;6.580;2023-02-21T08:59:43;101633.59;;;8.39;100.00
60307;BME280;46155;52.364;6.580;2023-02-21T09:02:20;101630.19;;;8.40;100.00
60307;BME280;46155;52.364;6.580;2023-02-21T09:04:46;101629.28;;;8.39;100.00
60307;BME280;46155;52.364;6.580;2023-02-21T09:07:16;101632.81;;;8.40;100.00
60307;BME280;46155;52.364;6.580;2023-02-21T09:09:42;101636.44;;;8.42;100.00
60307;BME280;46155;52.364;6.580;2023-02-21T09:12:08;101638.28;;;8.43;100.00
60307;BME280;46155;52.364;6.580;2023-02-21T09:14:35;101642.00;;;8.45;100.00
60307;BME280;46155;52.364;6.580;2023-02-21T09:17:01;101640.91;;;8.43;100.00
60307;BME280;46155;52.364;6.580;2023-02-21T09:19:26;101636.75;;;8.45;100.00
60307;BME280;46155;52.364;6.580;2023-02-21T09:21:52;101630.06;;;8.49;100.00
60307;BME280;46155;52.364;6.580;2023-02-21T09:24:21;101637.25;;;8.51;100.00
60307;BME280;46155;52.364;6.580;2023-02-21T09:26:57;101636.34;;;8.51;100.00
60307;BME280;46155;52.364;6.580;2023-02-21T09:29:24;101629.28;;;8.50;100.00
60307;BME280;46155;52.364;6.580;2023-02-21T09:31:50;101629.28;;;8.50;100.00
60307;BME280;46155;52.364;6.580;2023-02-21T09:34:16;101630.44;;;8.53;100.00
60307;BME280;46155;52.364;6.580;2023-02-21T09:36:41;101634.09;;;8.55;100.00
60307;BME280;46155;52.364;6.580;2023-02-21T09:39:07;101635.25;;;8.59;100.00
60307;BME280;46155;52.364;6.580;2023-02-21T09:41:34;101628.88;;;8.55;100.00
60307;BME280;46155;52.364;6.580;2023-02-21T09:44:00;101629.13;;;8.58;100.00
60307;BME280;46155;52.364;6.580;2023-02-21T09:46:51;101629.38;;;8.61;100.00
60307;BME280;46155;52.364;6.580;2023-02-21T09:49:26;101632.09;;;8.63;100.00
60307;BME280;46155;52.364;6.580;2023-02-21T09:51:53;101630.53;;;8.65;100.00
60307;BME280;46155;52.364;6.580;2023-02-21T09:54:33;101636.69;;;8.66;100.00
60307;BME280;46155;52.364;6.580;2023-02-21T09:57:03;101625.97;;;8.63;100.00
60307;BME280;46155;52.364;6.580;2023-02-21T09:59:29;101627.81;;;8.64;100.00
60307;BME280;46155;52.364;6.580;2023-02-21T10:01:58;101636.94;;;8.69;100.00
60307;BME280;46155;52.364;6.580;2023-02-21T10:07:25;101625.66;;;8.70;100.00
60307;BME280;46155;52.364;6.580;2023-02-21T10:10:00;101626.34;;;8.67;100.00
60307;BME280;46155;52.364;6.580;2023-02-21T10:12:35;101623.19;;;8.71;100.00
60307;BME280;46155;52.364;6.580;2023-02-21T10:18:01;101629.59;;;8.75;100.00
60307;BME280;46155;52.364;6.580;2023-02-21T10:20:34;101621.63;;;8.73;100.00
60307;BME280;46155;52.364;6.580;2023-02-21T10:23:14;101630.63;;;8.77;100.00
60307;BME280;46155;52.364;6.580;2023-02-21T10:25:43;101632.69;;;8.81;100.00
60307;BME280;46155;52.364;6.580;2023-02-21T10:28:17;101631.78;;;8.81;100.00
60307;BME280;46155;52.364;6.580;2023-02-21T10:30:43;101634.53;;;8.82;100.00
60307;BME280;46155;52.364;6.580;2023-02-21T10:33:08;101632.94;;;8.84;100.00
60307;BME280;46155;52.364;6.580;2023-02-21T10:35:37;101627.69;;;8.84;100.00
60307;BME280;46155;52.364;6.580;2023-02-21T10:38:06;101636.38;;;8.83;100.00
60307;BME280;46155;52.364;6.580;2023-02-21T10:43:16;101640.44;;;8.79;100.00
60307;BME280;46155;52.364;6.580;2023-02-21T10:48:35;101656.25;;;8.81;100.00
60307;BME280;46155;52.364;6.580;2023-02-21T10:51:15;101650.91;;;8.79;100.00
60307;BME280;46155;52.364;6.580;2023-02-21T10:53:46;101649.88;;;8.77;100.00
60307;BME280;46155;52.364;6.580;2023-02-21T11:01:19;101655.97;;;8.88;100.00
60307;BME280;46155;52.364;6.580;2023-02-21T11:03:49;101653.59;;;8.91;100.00
60307;BME280;46155;52.364;6.580;2023-02-21T11:06:55;101658.03;;;8.92;100.00
60307;BME280;46155;52.364;6.580;2023-02-21T11:09:42;101652.16;;;8.95;100.00
60307;BME280;46155;52.364;6.580;2023-02-21T11:12:23;101652.28;;;8.96;100.00
60307;BME280;46155;52.364;6.580;2023-02-21T11:17:21;101654.88;;;8.96;100.00
60307;BME280;46155;52.364;6.580;2023-02-21T11:19:55;101649.66;;;8.96;100.00
60307;BME280;46155;52.364;6.580;2023-02-21T11:25:06;101645.06;;;8.94;100.00
60307;BME280;46155;52.364;6.580;2023-02-21T11:27:37;101644.16;;;8.93;100.00
60307;BME280;46155;52.364;6.580;2023-02-21T11:30:23;101647.81;;;8.95;100.00
60307;BME280;46155;52.364;6.580;2023-02-21T11:32:54;101643.63;;;8.98;100.00
60307;BME280;46155;52.364;6.580;2023-02-21T11:35:30;101632.63;;;9.02;100.00
60307;BME280;46155;52.364;6.580;2023-02-21T11:38:05;101640.47;;;9.02;100.00
60307;BME280;46155;52.364;6.580;2023-02-21T11:40:48;101639.66;;;9.03;100.00
60307;BME280;46155;52.364;6.580;2023-02-21T11:43:24;101633.63;;;9.04;100.00
60307;BME280;46155;52.364;6.580;2023-02-21T11:46:14;101633.75;;;9.05;100.00
60307;BME280;46155;52.364;6.580;2023-02-21T11:49:13;101630.59;;;9.09;100.00
60307;BME280;46155;52.364;6.580;2023-02-21T11:52:01;101626.84;;;9.06;100.00
60307;BME280;46155;52.364;6.580;2023-02-21T11:54:28;101628.28;;;9.02;100.00
60307;BME280;46155;52.364;6.580;2023-02-21T12:00:29;101628.41;;;9.04;100.00
60307;BME280;46155;52.364;6.580;2023-02-21T12:21:55;101607.50;;;8.93;100.00
60307;BME280;46155;52.364;6.580;2023-02-21T12:24:45;101608.41;;;8.94;100.00
60307;BME280;46155;52.364;6.580;2023-02-21T12:27:20;101609.06;;;8.91;100.00
60307;BME280;46155;52.364;6.580;2023-02-21T12:37:57;101599.72;;;8.83;100.00
60307;BME280;46155;52.364;6.580;2023-02-21T12:40:57;101607.00;;;8.87;100.00
60307;BME280;46155;52.364;6.580;2023-02-21T12:48:42;101601.50;;;8.84;100.00
60307;BME280;46155;52.364;6.580;2023-02-21T12:51:13;101597.88;;;8.82;100.00
60307;BME280;46155;52.364;6.580;2023-02-21T12:53:46;101592.63;;;8.82;100.00
60307;BME280;46155;52.364;6.580;2023-02-21T13:01:19;101589.25;;;8.83;100.00
60307;BME280;46155;52.364;6.580;2023-02-21T13:06:33;101584.13;;;8.85;100.00
60307;BME280;46155;52.364;6.580;2023-02-21T13:12:15;101584.78;;;8.82;100.00
60307;BME280;46155;52.364;6.580;2023-02-21T13:14:51;101580.56;;;8.84;100.00
60307;BME280;46155;52.364;6.580;2023-02-21T13:17:19;101576.16;;;8.83;100.00
60307;BME280;46155;52.364;6.580;2023-02-21T13:20:05;101575.84;;;8.90;100.00
60307;BME280;46155;52.364;6.580;2023-02-21T13:22:33;101576.09;;;8.93;100.00
60307;BME280;46155;52.364;6.580;2023-02-21T13:25:26;101575.56;;;8.87;100.00
60307;BME280;46155;52.364;6.580;2023-02-21T13:28:20;101562.63;;;8.89;100.00
60307;BME280;46155;52.364;6.580;2023-02-21T13:30:51;101559.06;;;8.88;100.00
60307;BME280;46155;52.364;6.580;2023-02-21T13:36:17;101551.47;;;8.91;100.00
60307;BME280;46155;52.364;6.580;2023-02-21T13:38:44;101547.81;;;8.89;100.00
60307;BME280;46155;52.364;6.580;2023-02-21T13:41:11;101537.00;;;8.85;100.00
60307;BME280;46155;52.364;6.580;2023-02-21T13:43:49;101538.00;;;8.87;100.00
60307;BME280;46155;52.364;6.580;2023-02-21T13:57:39;101538.91;;;8.87;100.00
60307;BME280;46155;52.364;6.580;2023-02-21T14:08:24;101524.38;;;8.91;100.00
60307;BME280;46155;52.364;6.580;2023-02-21T14:13:53;101523.47;;;8.90;100.00
60307;BME280;46155;52.364;6.580;2023-02-21T14:16:23;101512.44;;;8.94;100.00
60307;BME280;46155;52.364;6.580;2023-02-21T14:19:10;101526.44;;;8.95;100.00
60307;BME280;46155;52.364;6.580;2023-02-21T14:21:44;101523.72;;;8.93;100.00
60307;BME280;46155;52.364;6.580;2023-02-21T14:24:21;101516.88;;;8.95;100.00
60307;BME280;46155;52.364;6.580;2023-02-21T14:29:40;101522.09;;;8.95;100.00
60307;BME280;46155;52.364;6.580;2023-02-21T14:37:00;101514.75;;;9.02;100.00
60307;BME280;46155;52.364;6.580;2023-02-21T14:39:33;101516.56;;;9.03;100.00
60307;BME280;46155;52.364;6.580;2023-02-21T14:42:16;101516.19;;;8.98;100.00
60307;BME280;46155;52.364;6.580;2023-02-21T14:44:54;101513.59;;;8.98;100.00
60307;BME280;46155;52.364;6.580;2023-02-21T14:50:13;101517.69;;;8.94;100.00
60307;BME280;46155;52.364;6.580;2023-02-21T14:56:06;101515.06;;;8.94;100.00
60307;BME280;46155;52.364;6.580;2023-02-21T15:09:43;101516.19;;;8.98;100.00
60307;BME280;46155;52.364;6.580;2023-02-21T15:12:15;101512.69;;;8.98;100.00
60307;BME280;46155;52.364;6.580;2023-02-21T15:14:47;101510.06;;;8.98;100.00
60307;BME280;46155;52.364;6.580;2023-02-21T15:17:19;101513.59;;;8.98;100.00
60307;BME280;46155;52.364;6.580;2023-02-21T15:19:45;101506.78;;;9.00;100.00
60307;BME280;46155;52.364;6.580;2023-02-21T15:25:13;101511.19;;;9.01;100.00
60307;BME280;46155;52.364;6.580;2023-02-21T15:30:16;101506.41;;;8.95;100.00
60307;BME280;46155;52.364;6.580;2023-02-21T15:32:41;101505.59;;;8.96;100.00
60307;BME280;46155;52.364;6.580;2023-02-21T15:35:13;101511.88;;;8.99;100.00
60307;BME280;46155;52.364;6.580;2023-02-21T15:37:42;101497.75;;;8.96;100.00
60307;BME280;46155;52.364;6.580;2023-02-21T15:40:14;101510.06;;;8.98;100.00
60307;BME280;46155;52.364;6.580;2023-02-21T15:42:41;101510.84;;;8.96;100.00
60307;BME280;46155;52.364;6.580;2023-02-21T15:45:17;101503.66;;;8.94;100.00
60307;BME280;46155;52.364;6.580;2023-02-21T15:47:43;101509.00;;;8.95;100.00
60307;BME280;46155;52.364;6.580;2023-02-21T15:50:29;101502.88;;;8.95;100.00
60307;BME280;46155;52.364;6.580;2023-02-21T15:53:10;101506.41;;;8.95;100.00
60307;BME280;46155;52.364;6.580;2023-02-21T15:55:35;101496.59;;;8.93;100.00
60307;BME280;46155;52.364;6.580;2023-02-21T16:00:29;101492.28;;;8.93;100.00
60307;BME280;46155;52.364;6.580;2023-02-21T16:05:51;101498.63;;;8.85;100.00
60307;BME280;46155;52.364;6.580;2023-02-21T16:08:16;101494.81;;;8.82;100.00
60307;BME280;46155;52.364;6.580;2023-02-21T16:10:43;101498.50;;;8.84;100.00
60307;BME280;46155;52.364;6.580;2023-02-21T16:13:10;101500.22;;;8.83;100.00
60307;BME280;46155;52.364;6.580;2023-02-21T16:15:36;101499.81;;;8.78;100.00
60307;BME280;46155;52.364;6.580;2023-02-21T16:18:06;101495.13;;;8.74;100.00
60307;BME280;46155;52.364;6.580;2023-02-21T16:20:36;101504.72;;;8.74;100.00
60307;BME280;46155;52.364;6.580;2023-02-21T16:23:41;101505.25;;;8.70;100.00
60307;BME280;46155;52.364;6.580;2023-02-21T16:26:18;101497.41;;;8.70;100.00
60307;BME280;46155;52.364;6.580;2023-02-21T16:28:45;101500.81;;;8.69;100.00
60307;BME280;46155;52.364;6.580;2023-02-21T16:31:16;101501.63;;;8.68;100.00
60307;BME280;46155;52.364;6.580;2023-02-21T16:33:48;101496.25;;;8.66;100.00
60307;BME280;46155;52.364;6.580;2023-02-21T16:36:24;101501.50;;;8.66;100.00
60307;BME280;46155;52.364;6.580;2023-02-21T16:38:49;101505.81;;;8.66;100.00
60307;BME280;46155;52.364;6.580;2023-02-21T16:41:15;101504.78;;;8.64;100.00
60307;BME280;46155;52.364;6.580;2023-02-21T16:43:40;101500.22;;;8.61;100.00
60307;BME280;46155;52.364;6.580;2023-02-21T16:46:06;101497.13;;;8.55;100.00
60307;BME280;46155;52.364;6.580;2023-02-21T16:48:31;101500.63;;;8.55;100.00
60307;BME280;46155;52.364;6.580;2023-02-21T16:51:01;101503.25;;;8.55;100.00
60307;BME280;46155;52.364;6.580;2023-02-21T16:53:27;101503.47;;;8.58;100.00
60307;BME280;46155;52.364;6.580;2023-02-21T16:55:53;101502.59;;;8.58;100.00
60307;BME280;46155;52.364;6.580;2023-02-21T16:58:26;101505.31;;;8.59;100.00
60307;BME280;46155;52.364;6.580;2023-02-21T17:00:54;101498.00;;;8.55;100.00
60307;BME280;46155;52.364;6.580;2023-02-21T17:03:21;101504.28;;;8.57;100.00
60307;BME280;46155;52.364;6.580;2023-02-21T17:05:46;101493.78;;;8.57;100.00
60307;BME280;46155;52.364;6.580;2023-02-21T17:08:12;101503.47;;;8.58;100.00
60307;BME280;46155;52.364;6.580;2023-02-21T17:10:38;101510.69;;;8.61;100.00
60307;BME280;46155;52.364;6.580;2023-02-21T17:13:03;101497.78;;;8.52;100.00
60307;BME280;46155;52.364;6.580;2023-02-21T17:15:29;101506.88;;;8.57;100.00
60307;BME280;46155;52.364;6.580;2023-02-21T17:17:56;101500.63;;;8.55;100.00
60307;BME280;46155;52.364;6.580;2023-02-21T17:20:21;101500.88;;;8.58;100.00
60307;BME280;46155;52.364;6.580;2023-02-21T17:22:47;101498.38;;;8.60;100.00
60307;BME280;46155;52.364;6.580;2023-02-21T17:25:13;101506.34;;;8.61;100.00
60307;BME280;46155;52.364;6.580;2023-02-21T17:27:39;101507.41;;;8.64;100.00
60307;BME280;46155;52.364;6.580;2023-02-21T17:30:04;101518.09;;;8.67;100.00
60307;BME280;46155;52.364;6.580;2023-02-21T17:32:30;101510.25;;;8.67;100.00
60307;BME280;46155;52.364;6.580;2023-02-21T17:34:56;101509.47;;;8.68;100.00
60307;BME280;46155;52.364;6.580;2023-02-21T17:37:21;101506.72;;;8.66;100.00
60307;BME280;46155;52.364;6.580;2023-02-21T17:39:51;101516.50;;;8.69;100.00
60307;BME280;46155;52.364;6.580;2023-02-21T17:42:16;101509.19;;;8.65;100.00
60307;BME280;46155;52.364;6.580;2023-02-21T17:44:42;101516.50;;;8.69;100.00
60307;BME280;46155;52.364;6.580;2023-02-21T17:47:11;101516.63;;;8.70;100.00
60307;BME280;46155;52.364;6.580;2023-02-21T17:49:37;101521.09;;;8.71;100.00
60307;BME280;46155;52.364;6.580;2023-02-21T17:52:04;101516.63;;;8.70;100.00
60307;BME280;46155;52.364;6.580;2023-02-21T17:54:30;101528.81;;;8.70;100.00
60307;BME280;46155;52.364;6.580;2023-02-21T17:56:55;101513.09;;;8.70;100.00
60307;BME280;46155;52.364;6.580;2023-02-21T17:59:21;101521.09;;;8.71;100.00
60307;BME280;46155;52.364;6.580;2023-02-21T18:01:46;101521.84;;;8.70;100.00
60307;BME280;46155;52.364;6.580;2023-02-21T18:04:12;101525.41;;;8.71;100.00
60307;BME280;46155;52.364;6.580;2023-02-21T18:06:38;101518.34;;;8.70;100.00
60307;BME280;46155;52.364;6.580;2023-02-21T18:09:04;101523.56;;;8.70;100.00
60307;BME280;46155;52.364;6.580;2023-02-21T18:11:32;101524.47;;;8.70;100.00
60307;BME280;46155;52.364;6.580;2023-02-21T18:13:57;101522.00;;;8.72;100.00
60307;BME280;46155;52.364;6.580;2023-02-21T18:16:23;101520.41;;;8.74;100.00
60307;BME280;46155;52.364;6.580;2023-02-21T18:18:48;101522.31;;;8.87;100.00
60307;BME280;46155;52.364;6.580;2023-02-21T18:21:15;101519.56;;;8.85;100.00
60307;BME280;46155;52.364;6.580;2023-02-21T18:23:44;101527.31;;;8.84;100.00
60307;BME280;46155;52.364;6.580;2023-02-21T18:26:11;101529.56;;;8.79;100.00
60307;BME280;46155;52.364;6.580;2023-02-21T18:28:37;101520.66;;;8.77;100.00
60307;BME280;46155;52.364;6.580;2023-02-21T18:31:02;101522.25;;;8.75;100.00
60307;BME280;46155;52.364;6.580;2023-02-21T18:33:28;101522.25;;;8.75;100.00
60307;BME280;46155;52.364;6.580;2023-02-21T18:35:55;101512.44;;;8.72;100.00
60307;BME280;46155;52.364;6.580;2023-02-21T18:38:21;101517.03;;;8.75;100.00
60307;BME280;46155;52.364;6.580;2023-02-21T18:40:47;101519.53;;;8.73;100.00
60307;BME280;46155;52.364;6.580;2023-02-21T18:43:25;101518.34;;;8.70;100.00
60307;BME280;46155;52.364;6.580;2023-02-21T18:45:52;101512.09;;;8.68;100.00
60307;BME280;46155;52.364;6.580;2023-02-21T18:48:18;101519.94;;;8.68;100.00
60307;BME280;46155;52.364;6.580;2023-02-21T18:50:44;101516.28;;;8.66;100.00
60307;BME280;46155;52.364;6.580;2023-02-21T18:53:10;101520.47;;;8.64;100.00
60307;BME280;46155;52.364;6.580;2023-02-21T18:55:36;101508.97;;;8.61;100.00
60307;BME280;46155;52.364;6.580;2023-02-21T18:58:01;101515.25;;;8.64;100.00
60307;BME280;46155;52.364;6.580;2023-02-21T19:00:28;101513.41;;;8.63;100.00
60307;BME280;46155;52.364;6.580;2023-02-21T19:02:53;101510.56;;;8.59;100.00
60307;BME280;46155;52.364;6.580;2023-02-21T19:05:22;101511.47;;;8.60;100.00
60307;BME280;46155;52.364;6.580;2023-02-21T19:07:47;101510.56;;;8.59;100.00
60307;BME280;46155;52.364;6.580;2023-02-21T19:10:15;101501.41;;;8.54;100.00